createdAt,value
2023-05-01T00:01:48.423Z,99041.09
2023-05-01T00:04:17.560Z,99044.81
2023-05-01T00:06:49.749Z,99044.97
2023-05-01T00:09:20.250Z,99041.09
2023-05-01T00:11:52.026Z,99042.72
2023-05-01T00:14:26.328Z,99033.97
2023-05-01T00:16:55.849Z,99034.63
2023-05-01T00:19:35.761Z,99042.72
2023-05-01T00:22:22.703Z,99057.88
2023-05-01T00:24:54.909Z,99053.50
2023-05-01T00:27:33.791Z,99061.59
2023-05-01T00:30:09.874Z,99055.28
2023-05-01T00:32:49.058Z,99046.56
2023-05-01T00:35:29.887Z,99034.75
2023-05-01T00:38:01.662Z,99018.75
2023-05-01T00:40:31.235Z,99030.69
2023-05-01T00:43:03.372Z,99038.09
2023-05-01T00:45:33.171Z,99034.53
2023-05-01T00:48:07.140Z,99028.38
2023-05-01T00:50:42.891Z,99026.16
2023-05-01T00:56:20.476Z,99041.31
2023-05-01T00:58:55.797Z,99027.91
2023-05-01T01:01:31.864Z,99038.41
2023-05-01T01:07:47.827Z,99058.75
2023-05-01T01:10:52.548Z,99063.44
2023-05-01T01:13:41.981Z,99072.16
2023-05-01T01:16:48.849Z,99081.38
2023-05-01T01:20:12.199Z,99064.88
2023-05-01T01:22:52.561Z,99038.22
2023-05-01T01:25:57.995Z,99006.31
2023-05-01T01:28:59.227Z,99005.03
2023-05-01T01:31:47.942Z,98999.91
2023-05-01T01:34:29.896Z,98995.56
2023-05-01T01:37:39.991Z,98984.16
2023-05-01T01:40:34.013Z,98975.75
2023-05-01T01:43:09.302Z,98981.75
2023-05-01T01:45:55.364Z,98992.19
2023-05-01T01:48:45.153Z,98998.00
2023-05-01T01:51:24.379Z,98999.94
2023-05-01T01:54:01.699Z,98983.47
2023-05-01T01:56:37.469Z,98970.63
2023-05-01T01:59:17.056Z,98979.69
2023-05-01T02:02:04.270Z,98989.09
2023-05-01T02:04:50.066Z,98990.88
2023-05-01T02:07:53.976Z,98993.75
2023-05-01T02:10:44.096Z,98985.94
2023-05-01T02:13:21.842Z,98984.97
2023-05-01T02:16:26.708Z,98965.59
2023-05-01T02:19:09.507Z,98954.78
2023-05-01T02:21:44.389Z,98974.22
2023-05-01T02:24:14.287Z,98985.84
2023-05-01T02:27:01.779Z,99007.78
2023-05-01T02:29:32.362Z,99005.50
2023-05-01T02:32:08.947Z,99007.91
2023-05-01T02:34:39.827Z,99019.53
2023-05-01T02:37:14.698Z,99028.91
2023-05-01T02:39:48.457Z,99043.78
2023-05-01T02:42:23.004Z,99058.06
2023-05-01T02:45:07.741Z,99048.47
2023-05-01T02:47:39.840Z,99074.16
2023-05-01T02:50:09.350Z,99071.22
2023-05-01T02:52:38.264Z,99079.97
2023-05-01T02:55:25.601Z,99073.69
2023-05-01T02:57:53.817Z,99061.25
2023-05-01T03:00:22.127Z,99058.47
2023-05-01T03:02:50.400Z,99039.25
2023-05-01T03:05:20.144Z,99045.84
2023-05-01T03:07:48.673Z,99020.72
2023-05-01T03:10:17.064Z,99010.50
2023-05-01T03:12:44.808Z,99023.22
2023-05-01T03:15:13.668Z,99026.50
2023-05-01T03:17:41.914Z,99021.53
2023-05-01T03:20:11.245Z,99024.06
2023-05-01T03:22:39.953Z,99029.56
2023-05-01T03:25:09.706Z,99025.94
2023-05-01T03:27:38.643Z,99036.31
2023-05-01T03:30:07.333Z,99052.50
2023-05-01T03:32:39.233Z,99057.31
2023-05-01T03:35:11.063Z,99054.09
2023-05-01T03:37:39.134Z,99051.84
2023-05-01T03:40:07.627Z,99037.28
2023-05-01T03:42:38.771Z,99047.38
2023-05-01T03:45:19.323Z,99056.25
2023-05-01T03:47:48.022Z,99050.72
2023-05-01T03:50:16.941Z,99060.72
2023-05-01T03:52:47.291Z,99065.28
2023-05-01T03:55:15.707Z,99062.19
2023-05-01T03:57:47.552Z,99062.66
2023-05-01T04:00:15.320Z,99054.22
2023-05-01T04:02:43.399Z,99055.44
2023-05-01T04:05:16.224Z,99057.22
2023-05-01T04:07:49.188Z,99038.09
2023-05-01T04:10:17.885Z,99041.19
2023-05-01T04:12:54.365Z,99045.50
2023-05-01T04:15:22.825Z,99051.66
2023-05-01T04:17:51.340Z,99057.00
2023-05-01T04:20:20.507Z,99055.84
2023-05-01T04:22:48.811Z,99060.25
2023-05-01T04:25:16.927Z,99059.34
2023-05-01T04:27:46.136Z,99064.09
2023-05-01T04:30:15.495Z,99062.44
2023-05-01T04:32:43.959Z,99071.97
2023-05-01T04:35:12.398Z,99069.75
2023-05-01T04:37:43.275Z,99079.97
2023-05-01T04:40:13.781Z,99076.91
2023-05-01T04:42:43.718Z,99073.41
2023-05-01T04:45:14.801Z,99073.78
2023-05-01T04:47:43.687Z,99075.22
2023-05-01T04:50:12.232Z,99095.06
2023-05-01T04:52:40.279Z,99094.97
2023-05-01T04:55:13.056Z,99087.19
2023-05-01T04:57:57.971Z,99079.13
2023-05-01T05:00:26.346Z,99081.72
2023-05-01T05:02:57.596Z,99091.31
2023-05-01T05:05:26.794Z,99082.97
2023-05-01T05:07:55.059Z,99090.31
2023-05-01T05:10:36.596Z,99092.13
2023-05-01T05:13:26.966Z,99086.38
2023-05-01T05:16:05.378Z,99086.91
2023-05-01T05:18:38.257Z,99085.31
2023-05-01T05:21:07.293Z,99087.09
2023-05-01T05:23:36.190Z,99083.16
2023-05-01T05:26:04.765Z,99097.03
2023-05-01T05:28:32.865Z,99098.38
2023-05-01T05:31:00.813Z,99099.97
2023-05-01T05:33:29.386Z,99091.75
2023-05-01T05:36:00.335Z,99084.78
2023-05-01T05:38:33.886Z,99090.22
2023-05-01T05:41:03.581Z,99095.78
2023-05-01T05:43:32.566Z,99093.97
2023-05-01T05:46:01.325Z,99090.41
2023-05-01T05:49:15.958Z,99085.19
2023-05-01T05:52:40.514Z,99096.66
2023-05-01T05:54:42.411Z,99103.28
2023-05-01T05:57:10.555Z,99103.72
2023-05-01T05:59:44.669Z,99107.81
2023-05-01T06:02:14.764Z,99110.66
2023-05-01T06:04:43.221Z,99112.28
2023-05-01T06:07:11.650Z,99114.69
2023-05-01T06:09:39.612Z,99113.25
2023-05-01T06:12:07.755Z,99116.59
2023-05-01T06:14:35.636Z,99120.88
2023-05-01T06:17:03.851Z,99131.09
2023-05-01T06:19:31.851Z,99132.34
2023-05-01T06:22:08.118Z,99131.78
2023-05-01T06:24:42.037Z,99134.47
2023-05-01T06:27:11.962Z,99136.16
2023-05-01T06:29:39.786Z,99131.00
2023-05-01T06:32:08.239Z,99140.31
2023-05-01T06:34:36.184Z,99144.44
2023-05-01T06:37:05.888Z,99152.47
2023-05-01T06:39:34.022Z,99141.25
2023-05-01T06:42:03.571Z,99147.59
2023-05-01T06:44:35.404Z,99141.03
2023-05-01T06:47:03.170Z,99143.47
2023-05-01T06:49:30.940Z,99146.44
2023-05-01T06:51:59.222Z,99148.09
2023-05-01T06:54:27.050Z,99156.53
2023-05-01T06:56:55.370Z,99151.97
2023-05-01T06:59:23.176Z,99157.00
2023-05-01T07:01:51.129Z,99166.13
2023-05-01T07:04:19.060Z,99174.13
2023-05-01T07:06:46.873Z,99173.81
2023-05-01T07:09:14.647Z,99180.34
2023-05-01T07:11:45.528Z,99188.19
2023-05-01T07:14:13.162Z,99198.38
2023-05-01T07:16:41.543Z,99190.75
2023-05-01T07:19:09.662Z,99198.13
2023-05-01T07:21:37.179Z,99196.19
2023-05-01T07:24:05.924Z,99194.38
2023-05-01T07:26:33.754Z,99198.81
2023-05-01T07:29:01.418Z,99198.84
2023-05-01T07:31:30.262Z,99204.09
2023-05-01T07:33:58.177Z,99203.50
2023-05-01T07:36:25.896Z,99212.31
2023-05-01T07:38:53.334Z,99205.47
2023-05-01T07:41:22.336Z,99214.50
2023-05-01T07:43:49.785Z,99214.31
2023-05-01T07:46:17.329Z,99207.69
2023-05-01T07:48:45.174Z,99216.19
2023-05-01T07:51:13.213Z,99216.03
2023-05-01T07:53:42.350Z,99219.84
2023-05-01T07:56:11.556Z,99218.63
2023-05-01T07:58:41.098Z,99230.03
2023-05-01T08:01:09.650Z,99237.66
2023-05-01T08:03:37.602Z,99236.69
2023-05-01T08:06:06.202Z,99231.47
2023-05-01T08:08:34.275Z,99230.84
2023-05-01T08:11:01.945Z,99238.47
2023-05-01T08:13:29.506Z,99245.06
2023-05-01T08:16:04.219Z,99239.66
2023-05-01T08:18:32.254Z,99241.06
2023-05-01T08:21:00.252Z,99252.78
2023-05-01T08:23:27.974Z,99251.38
2023-05-01T08:25:56.536Z,99251.56
2023-05-01T08:28:24.029Z,99258.81
2023-05-01T08:30:51.729Z,99267.06
2023-05-01T08:33:19.514Z,99262.81
2023-05-01T08:35:49.848Z,99267.84
2023-05-01T08:38:17.441Z,99272.66
2023-05-01T08:40:51.668Z,99277.09
2023-05-01T08:43:19.699Z,99274.69
2023-05-01T08:45:50.305Z,99279.28
2023-05-01T08:48:21.609Z,99292.34
2023-05-01T08:50:49.935Z,99283.50
2023-05-01T08:53:20.069Z,99291.47
2023-05-01T08:55:54.244Z,99298.25
2023-05-01T08:58:25.181Z,99301.47
2023-05-01T09:00:56.773Z,99299.47
2023-05-01T09:03:26.795Z,99308.66
2023-05-01T09:05:55.040Z,99307.69
2023-05-01T09:08:22.592Z,99307.09
2023-05-01T09:10:52.355Z,99316.97
2023-05-01T09:13:20.022Z,99316.00
2023-05-01T09:15:47.544Z,99322.25
2023-05-01T09:18:16.597Z,99320.50
2023-05-01T09:20:46.652Z,99324.94
2023-05-01T09:23:14.258Z,99326.69
2023-05-01T09:25:42.707Z,99320.91
2023-05-01T09:28:10.766Z,99329.56
2023-05-01T09:30:39.715Z,99327.34
2023-05-01T09:33:11.229Z,99335.34
2023-05-01T09:35:49.763Z,99334.16
2023-05-01T09:38:20.499Z,99339.78
2023-05-01T09:40:48.561Z,99333.25
2023-05-01T09:43:30.384Z,99344.44
2023-05-01T09:46:07.345Z,99352.81
2023-05-01T09:48:38.686Z,99333.09
2023-05-01T09:51:22.750Z,99327.84
2023-05-01T09:53:51.870Z,99326.03
2023-05-01T09:56:22.334Z,99342.41
2023-05-01T09:58:55.361Z,99344.78
2023-05-01T10:01:43.558Z,99349.84
2023-05-01T10:04:12.040Z,99342.22
2023-05-01T10:06:41.015Z,99352.88
2023-05-01T10:09:17.716Z,99356.69
2023-05-01T10:11:54.732Z,99362.69
2023-05-01T10:14:24.834Z,99365.47
2023-05-01T10:16:58.246Z,99367.94
2023-05-01T10:19:26.429Z,99380.84
2023-05-01T10:21:54.204Z,99376.38
2023-05-01T10:24:22.597Z,99381.63
2023-05-01T10:26:56.788Z,99384.13
2023-05-01T10:29:30.013Z,99380.75
2023-05-01T10:31:59.230Z,99388.41
2023-05-01T10:34:28.574Z,99384.84
2023-05-01T10:37:14.255Z,99403.19
2023-05-01T10:39:42.202Z,99407.84
2023-05-01T10:42:14.520Z,99411.81
2023-05-01T10:44:42.923Z,99426.94
2023-05-01T10:47:27.857Z,99443.06
2023-05-01T10:50:13.060Z,99430.97
2023-05-01T10:53:15.732Z,99438.78
2023-05-01T10:55:48.020Z,99444.47
2023-05-01T10:58:38.804Z,99449.84
2023-05-01T11:01:31.770Z,99466.06
2023-05-01T11:04:10.424Z,99468.09
2023-05-01T11:06:39.496Z,99468.09
2023-05-01T11:09:37.269Z,99479.50
2023-05-01T11:12:06.707Z,99503.88
2023-05-01T11:14:57.627Z,99490.94
2023-05-01T11:17:45.980Z,99526.44
2023-05-01T11:20:36.021Z,99499.63
2023-05-01T11:23:03.974Z,99510.72
2023-05-01T11:25:33.396Z,99516.34
2023-05-01T11:28:03.466Z,99518.19
2023-05-01T11:30:38.249Z,99531.16
2023-05-01T11:33:09.768Z,99534.53
2023-05-01T11:35:41.682Z,99542.00
2023-05-01T11:38:20.686Z,99535.91
2023-05-01T11:40:59.866Z,99537.81
2023-05-01T11:43:27.984Z,99542.38
2023-05-01T11:46:02.790Z,99558.59
2023-05-01T11:48:32.116Z,99562.13
2023-05-01T11:51:00.221Z,99563.28
2023-05-01T11:53:30.664Z,99572.66
2023-05-01T11:55:59.754Z,99568.09
2023-05-01T11:58:33.211Z,99591.88
2023-05-01T12:01:01.239Z,99583.41
2023-05-01T12:03:29.878Z,99579.63
2023-05-01T12:05:58.999Z,99597.25
2023-05-01T12:08:27.380Z,99585.72
2023-05-01T12:10:57.827Z,99595.84
2023-05-01T12:13:27.560Z,99611.03
2023-05-01T12:16:01.151Z,99602.72
2023-05-01T12:18:33.429Z,99621.16
2023-05-01T12:24:48.657Z,99613.13
2023-05-01T12:30:44.298Z,99635.44
2023-05-01T12:33:30.782Z,99633.19
2023-05-01T12:36:15.998Z,99634.63
2023-05-01T12:38:56.490Z,99651.53
2023-05-01T12:41:39.524Z,99644.25
2023-05-01T12:44:31.666Z,99662.78
2023-05-01T12:47:08.354Z,99659.19
2023-05-01T12:49:47.158Z,99661.88
2023-05-01T12:59:20.518Z,99676.56
2023-05-01T13:08:17.800Z,99671.81
2023-05-01T13:11:17.198Z,99686.06
2023-05-01T13:13:53.874Z,99685.53
2023-05-01T13:16:22.786Z,99689.25
2023-05-01T13:18:54.996Z,99704.59
2023-05-01T13:21:28.392Z,99698.75
2023-05-01T13:24:00.145Z,99696.69
2023-05-01T13:26:39.074Z,99699.13
2023-05-01T13:29:28.057Z,99697.34
2023-05-01T13:36:14.245Z,99729.13
2023-05-01T13:41:52.137Z,99738.63
2023-05-01T13:44:24.398Z,99736.38
2023-05-01T13:46:52.590Z,99753.25
2023-05-01T13:49:25.825Z,99733.59
2023-05-01T13:51:54.541Z,99748.31
2023-05-01T13:54:22.541Z,99749.47
2023-05-01T13:57:03.106Z,99738.72
2023-05-01T13:59:39.256Z,99742.34
2023-05-01T14:02:37.460Z,99739.56
2023-05-01T14:05:10.699Z,99733.56
2023-05-01T14:07:55.907Z,99725.53
2023-05-01T14:10:33.544Z,99751.16
2023-05-01T14:13:05.553Z,99745.66
2023-05-01T14:15:49.663Z,99731.84
2023-05-01T14:18:22.565Z,99740.47
2023-05-01T14:21:04.257Z,99761.72
2023-05-01T14:23:33.493Z,99742.09
2023-05-01T14:26:01.178Z,99752.09
2023-05-01T14:28:30.754Z,99757.75
2023-05-01T14:30:58.846Z,99762.09
2023-05-01T14:33:58.639Z,99765.69
2023-05-01T14:36:50.531Z,99746.38
2023-05-01T14:39:19.206Z,99744.44
2023-05-01T14:41:48.029Z,99761.19
2023-05-01T14:44:17.962Z,99760.72
2023-05-01T14:46:51.748Z,99755.81
2023-05-01T14:49:27.435Z,99770.03
2023-05-01T14:51:55.081Z,99767.47
2023-05-01T14:54:22.984Z,99755.31
2023-05-01T14:56:50.685Z,99770.91
2023-05-01T14:59:18.276Z,99780.97
2023-05-01T15:01:45.914Z,99787.47
2023-05-01T15:04:14.522Z,99790.34
2023-05-01T15:06:42.437Z,99772.81
2023-05-01T15:09:10.253Z,99785.13
2023-05-01T15:11:39.547Z,99782.53
2023-05-01T15:14:07.043Z,99793.84
2023-05-01T15:16:34.541Z,99801.47
2023-05-01T15:19:08.203Z,99798.66
2023-05-01T15:21:36.592Z,99811.63
2023-05-01T15:24:04.972Z,99823.94
2023-05-01T15:26:32.567Z,99821.66
2023-05-01T15:28:59.955Z,99835.13
2023-05-01T15:31:28.307Z,99826.34
2023-05-01T15:33:55.726Z,99833.91
2023-05-01T15:36:23.599Z,99832.47
2023-05-01T15:38:51.650Z,99833.44
2023-05-01T15:41:19.658Z,99834.09
2023-05-01T15:43:47.100Z,99841.41
2023-05-01T15:46:18.927Z,99846.88
2023-05-01T15:48:48.432Z,99852.00
2023-05-01T15:51:16.481Z,99861.44
2023-05-01T15:53:44.234Z,99854.47
2023-05-01T15:56:11.621Z,99867.94
2023-05-01T15:58:39.793Z,99882.81
2023-05-01T16:01:07.873Z,99873.06
2023-05-01T16:03:35.687Z,99886.78
2023-05-01T16:06:04.173Z,99899.59
2023-05-01T16:08:32.691Z,99888.22
2023-05-01T16:11:00.116Z,99890.97
2023-05-01T16:13:27.648Z,99893.03
2023-05-01T16:15:55.133Z,99907.94
2023-05-01T16:18:25.322Z,99907.88
2023-05-01T16:20:54.811Z,99914.00
2023-05-01T16:23:25.052Z,99905.59
2023-05-01T16:25:52.924Z,99917.88
2023-05-01T16:28:20.459Z,99916.22
2023-05-01T16:30:48.171Z,99918.97
2023-05-01T16:33:19.464Z,99921.72
2023-05-01T16:35:49.593Z,99934.00
2023-05-01T16:38:18.561Z,99937.84
2023-05-01T16:40:48.219Z,99938.66
2023-05-01T16:43:15.894Z,99938.66
2023-05-01T16:45:43.669Z,99940.44
2023-05-01T16:48:11.658Z,99946.56
2023-05-01T16:50:41.514Z,99939.09
2023-05-01T16:53:09.510Z,99939.41
2023-05-01T16:55:37.427Z,99940.66
2023-05-01T16:58:06.911Z,99950.56
2023-05-01T17:00:37.122Z,99958.31
2023-05-01T17:03:05.241Z,99959.97
2023-05-01T17:05:35.003Z,99954.94
2023-05-01T17:08:02.607Z,99947.47
2023-05-01T17:10:30.379Z,99965.59
2023-05-01T17:13:05.801Z,99964.13
2023-05-01T17:15:33.990Z,99968.63
2023-05-01T17:18:02.134Z,99975.84
2023-05-01T17:20:30.643Z,99978.06
2023-05-01T17:22:58.427Z,99984.50
2023-05-01T17:25:25.908Z,99979.63
2023-05-01T17:27:55.175Z,99982.66
2023-05-01T17:30:25.599Z,99998.34
2023-05-01T17:32:53.484Z,99990.47
2023-05-01T17:35:21.708Z,99997.50
2023-05-01T17:37:50.332Z,99994.13
2023-05-01T17:40:17.988Z,100010.38
2023-05-01T17:42:46.012Z,100007.44
2023-05-01T17:45:13.783Z,100013.56
2023-05-01T17:47:42.926Z,100013.31
2023-05-01T17:50:13.507Z,100015.22
2023-05-01T17:52:45.671Z,100006.81
2023-05-01T17:55:17.155Z,100024.66
2023-05-01T17:57:46.342Z,100011.88
2023-05-01T18:00:14.751Z,100024.56
2023-05-01T18:02:44.875Z,100025.78
2023-05-01T18:05:13.316Z,100027.84
2023-05-01T18:07:41.160Z,100030.13
2023-05-01T18:10:10.982Z,100038.69
2023-05-01T18:12:39.061Z,100049.25
2023-05-01T18:15:23.092Z,100062.56
2023-05-01T18:17:50.995Z,100064.84
2023-05-01T18:20:19.680Z,100070.72
2023-05-01T18:22:47.291Z,100070.00
2023-05-01T18:25:16.996Z,100069.56
2023-05-01T18:27:45.261Z,100067.50
2023-05-01T18:30:13.476Z,100070.09
2023-05-01T18:32:48.098Z,100071.88
2023-05-01T18:35:19.264Z,100074.16
2023-05-01T18:37:47.266Z,100070.38
2023-05-01T18:40:15.671Z,100074.72
2023-05-01T18:42:43.494Z,100087.81
2023-05-01T18:45:11.601Z,100088.63
2023-05-01T18:47:39.472Z,100084.84
2023-05-01T18:50:08.017Z,100100.63
2023-05-01T18:52:37.260Z,100094.53
2023-05-01T18:55:05.465Z,100099.94
2023-05-01T18:57:33.683Z,100112.34
2023-05-01T19:00:01.858Z,100112.09
2023-05-01T19:02:31.295Z,100112.78
2023-05-01T19:04:59.367Z,100118.34
2023-05-01T19:07:27.101Z,100129.78
2023-05-01T19:09:55.476Z,100119.88
2023-05-01T19:12:23.113Z,100136.06
2023-05-01T19:14:51.267Z,100125.19
2023-05-01T19:17:19.915Z,100130.59
2023-05-01T19:19:47.632Z,100133.88
2023-05-01T19:22:15.578Z,100132.50
2023-05-01T19:24:43.830Z,100134.97
2023-05-01T19:27:11.790Z,100137.81
2023-05-01T19:29:39.923Z,100145.16
2023-05-01T19:32:07.857Z,100131.81
2023-05-01T19:34:37.842Z,100132.25
2023-05-01T19:37:05.697Z,100135.22
2023-05-01T19:39:33.816Z,100139.28
2023-05-01T19:42:02.524Z,100138.34
2023-05-01T19:44:30.913Z,100148.25
2023-05-01T19:46:58.525Z,100139.25
2023-05-01T19:49:26.702Z,100157.47
2023-05-01T19:51:54.651Z,100151.22
2023-05-01T19:54:23.113Z,100152.28
2023-05-01T19:56:51.848Z,100157.03
2023-05-01T19:59:20.346Z,100157.94
2023-05-01T20:01:48.286Z,100163.31
2023-05-01T20:04:16.209Z,100164.22
2023-05-01T20:06:44.020Z,100165.19
2023-05-01T20:09:11.859Z,100174.44
2023-05-01T20:11:39.723Z,100167.91
2023-05-01T20:14:07.595Z,100186.63
2023-05-01T20:16:36.504Z,100179.41
2023-05-01T20:19:04.622Z,100176.78
2023-05-01T20:21:33.144Z,100183.00
2023-05-01T20:24:01.235Z,100185.56
2023-05-01T20:26:29.402Z,100187.09
2023-05-01T20:28:57.600Z,100192.50
2023-05-01T20:31:25.654Z,100195.06
2023-05-01T20:33:53.750Z,100199.66
2023-05-01T20:36:23.009Z,100197.28
2023-05-01T20:38:53.368Z,100198.06
2023-05-01T20:41:21.945Z,100209.44
2023-05-01T20:43:49.865Z,100201.06
2023-05-01T20:46:18.473Z,100210.19
2023-05-01T20:48:49.535Z,100225.66
2023-05-01T20:51:18.162Z,100217.78
2023-05-01T20:53:46.217Z,100224.69
2023-05-01T20:56:14.121Z,100218.66
2023-05-01T20:58:44.396Z,100232.00
2023-05-01T21:01:12.512Z,100233.16
2023-05-01T21:03:40.835Z,100231.06
2023-05-01T21:06:09.184Z,100239.28
2023-05-01T21:08:37.112Z,100255.59
2023-05-01T21:11:05.842Z,100247.97
2023-05-01T21:13:34.125Z,100251.03
2023-05-01T21:16:03.153Z,100248.16
2023-05-01T21:18:34.188Z,100251.06
2023-05-01T21:21:02.575Z,100253.41
2023-05-01T21:23:31.004Z,100262.44
2023-05-01T21:25:59.470Z,100269.31
2023-05-01T21:28:28.147Z,100264.16
2023-05-01T21:30:56.480Z,100278.81
2023-05-01T21:33:25.291Z,100284.56
2023-05-01T21:35:53.784Z,100290.63
2023-05-01T21:38:22.208Z,100293.72
2023-05-01T21:40:51.653Z,100300.59
2023-05-01T21:43:20.293Z,100306.34
2023-05-01T21:45:48.540Z,100301.66
2023-05-01T21:48:19.525Z,100319.47
2023-05-01T21:50:50.107Z,100317.34
2023-05-01T21:53:18.304Z,100319.44
2023-05-01T21:55:46.748Z,100321.69
2023-05-01T21:58:15.202Z,100328.56
2023-05-01T22:00:43.386Z,100329.75
2023-05-01T22:03:11.385Z,100333.59
2023-05-01T22:05:41.142Z,100336.19
2023-05-01T22:08:09.324Z,100341.44
2023-05-01T22:10:37.352Z,100341.94
2023-05-01T22:13:06.763Z,100356.56
2023-05-01T22:15:34.779Z,100348.84
2023-05-01T22:18:02.789Z,100359.13
2023-05-01T22:20:30.870Z,100357.72
2023-05-01T22:22:58.949Z,100350.78
2023-05-01T22:25:27.021Z,100354.31
2023-05-01T22:27:55.065Z,100363.53
2023-05-01T22:30:22.777Z,100360.59
2023-05-01T22:32:52.650Z,100364.22
2023-05-01T22:35:20.654Z,100368.06
2023-05-01T22:37:50.833Z,100370.28
2023-05-01T22:40:18.919Z,100369.44
2023-05-01T22:42:47.240Z,100386.50
2023-05-01T22:45:15.541Z,100388.16
2023-05-01T22:47:43.368Z,100394.72
2023-05-01T22:50:11.585Z,100384.66
2023-05-01T22:52:40.621Z,100392.59
2023-05-01T22:55:08.836Z,100391.44
2023-05-01T22:57:36.838Z,100390.03
2023-05-01T23:00:06.788Z,100396.22
2023-05-01T23:02:34.377Z,100397.03
2023-05-01T23:05:02.308Z,100406.50
2023-05-01T23:07:31.108Z,100411.75
2023-05-01T23:09:59.453Z,100414.19
2023-05-01T23:12:28.061Z,100411.22
2023-05-01T23:14:56.163Z,100420.78
2023-05-01T23:17:27.192Z,100406.84
2023-05-01T23:19:58.806Z,100417.84
2023-05-01T23:22:26.801Z,100425.13
2023-05-01T23:24:54.494Z,100425.44
2023-05-01T23:27:22.767Z,100426.38
2023-05-01T23:29:55.233Z,100426.16
2023-05-01T23:32:30.846Z,100424.03
2023-05-01T23:35:08.158Z,100432.34
2023-05-01T23:37:36.172Z,100431.97
2023-05-01T23:40:04.451Z,100447.00
2023-05-01T23:42:33.257Z,100448.13
2023-05-01T23:45:01.438Z,100442.38
2023-05-01T23:47:32.349Z,100444.97
2023-05-01T23:50:00.438Z,100455.97
2023-05-01T23:52:28.660Z,100461.44
2023-05-01T23:54:56.606Z,100470.06
2023-05-01T23:57:24.592Z,100462.34
2023-05-01T23:59:53.499Z,100462.69
